Time;durP1;ratioP1;P1;durP2;ratioP2;P2;SDS_P1;SDS_P2;PMS_P1;PMS_P2;Temp;Humidity;BMP_temperature;BMP_pressure;BME280_temperature;BME280_humidity;BME280_pressure;Samples;Min_cycle;Max_cycle;Signal;HPM_P1;HPM_P2
2021/07/15 00:01:52;;;;;;;1999.90;999.90;;;5.20;99.90;;;;;;5095121;28;20164;-42
2021/07/15 00:04:19;;;;;;;1999.90;999.90;;;5.10;99.90;;;;;;5094994;28;20204;-43
2021/07/15 00:06:46;;;;;;;1999.90;999.90;;;5.20;99.90;;;;;;5094981;28;20186;-50
2021/07/15 00:09:14;;;;;;;1999.90;999.90;;;5.20;99.90;;;;;;5095005;28;20175;-43
2021/07/15 00:11:44;;;;;;;1999.90;999.90;;;5.20;99.90;;;;;;5095043;28;20185;-59
2021/07/15 00:14:12;;;;;;;1999.90;999.90;;;5.30;99.90;;;;;;5094921;28;20544;-59
2021/07/15 00:16:39;;;;;;;1999.90;999.90;;;5.20;99.90;;;;;;5094916;28;20172;-42
2021/07/15 00:19:11;;;;;;;1999.90;999.90;;;5.20;99.90;;;;;;5094725;28;20175;-48
2021/07/15 00:21:39;;;;;;;1999.90;999.90;;;5.20;99.90;;;;;;5094825;28;20160;-42
2021/07/15 00:24:06;;;;;;;1999.90;999.90;;;5.10;99.90;;;;;;5094498;28;20211;-42
2021/07/15 00:26:32;;;;;;;1999.90;999.90;;;5.00;99.90;;;;;;5094569;28;20172;-42
2021/07/15 00:28:59;;;;;;;1999.90;999.90;;;5.00;99.90;;;;;;5094605;28;20237;-42
2021/07/15 00:31:26;;;;;;;1999.90;999.90;;;4.90;99.90;;;;;;5094513;28;20223;-42
2021/07/15 00:33:53;;;;;;;1999.90;999.90;;;4.90;99.90;;;;;;5094519;28;20171;-42
2021/07/15 00:36:21;;;;;;;1999.90;999.90;;;4.90;99.90;;;;;;5094417;28;20194;-41
2021/07/15 00:38:48;;;;;;;1999.90;999.90;;;4.90;99.90;;;;;;5094401;28;20168;-43
2021/07/15 00:41:15;;;;;;;1999.90;999.90;;;5.00;99.90;;;;;;5094375;28;20623;-42
2021/07/15 00:43:42;;;;;;;1999.90;999.90;;;4.90;99.90;;;;;;5094364;28;20199;-42
2021/07/15 00:46:09;;;;;;;1999.90;999.90;;;4.80;99.90;;;;;;5094053;28;20511;-42
2021/07/15 00:48:36;;;;;;;1999.90;999.90;;;4.80;99.90;;;;;;5093632;28;20226;-57
2021/07/15 00:51:04;;;;;;;1999.90;999.90;;;4.80;99.90;;;;;;5094164;28;20575;-42
2021/07/15 00:53:31;;;;;;;1999.90;999.90;;;4.80;99.90;;;;;;5094110;28;20166;-42
2021/07/15 00:55:58;;;;;;;1999.90;999.90;;;4.70;99.90;;;;;;5094119;28;20202;-42
2021/07/15 00:58:26;;;;;;;1999.90;999.90;;;4.60;99.90;;;;;;5094071;28;20182;-42
2021/07/15 01:00:53;;;;;;;1999.90;999.90;;;4.60;99.90;;;;;;5092789;28;20625;-42
2021/07/15 01:03:22;;;;;;;1999.90;999.90;;;4.60;99.90;;;;;;5093682;28;20241;-58
2021/07/15 01:05:51;;;;;;;1999.90;999.90;;;4.60;99.90;;;;;;5093871;28;20164;-42
2021/07/15 01:08:18;;;;;;;1999.90;999.90;;;4.60;99.90;;;;;;5093844;28;20164;-42
2021/07/15 01:10:59;;;;;;;1999.90;999.90;;;4.70;99.90;;;;;;5093868;28;20200;-57
2021/07/15 01:13:47;;;;;;;1999.90;999.90;;;4.70;99.90;;;;;;5093983;28;20336;-42
2021/07/15 01:16:26;;;;;;;1999.90;999.90;;;4.70;99.90;;;;;;5093861;28;20153;-55
2021/07/15 01:19:31;;;;;;;1999.90;999.90;;;4.70;99.90;;;;;;5092389;28;20174;-42
2021/07/15 01:22:28;;;;;;;1999.90;999.90;;;4.70;99.90;;;;;;5031395;28;20176;-42
2021/07/15 01:25:30;;;;;;;1999.90;999.90;;;4.80;99.90;;;;;;5031260;28;20172;-59
2021/07/15 01:28:05;;;;;;;1999.90;999.90;;;4.80;99.90;;;;;;5072591;28;20213;-41
2021/07/15 01:30:38;;;;;;;1999.90;999.90;;;4.70;99.90;;;;;;5093293;28;20206;-55
2021/07/15 01:33:16;;;;;;;1999.90;999.90;;;4.60;99.90;;;;;;5093510;28;20153;-42
2021/07/15 01:36:08;;;;;;;1999.90;999.90;;;4.60;99.90;;;;;;5093651;28;20668;-59
2021/07/15 01:38:41;;;;;;;1999.90;999.90;;;4.60;99.90;;;;;;5086384;28;20287;-42
2021/07/15 01:41:10;;;;;;;1999.90;999.90;;;4.60;99.90;;;;;;5093293;28;20157;-42
2021/07/15 01:43:45;;;;;;;1999.90;999.90;;;4.60;99.90;;;;;;5093114;28;20294;-42
2021/07/15 01:46:16;;;;;;;1999.90;999.90;;;4.60;99.90;;;;;;5093222;28;20566;-42
2021/07/15 01:48:44;;;;;;;1999.90;999.90;;;4.70;99.90;;;;;;5093250;28;20147;-42
2021/07/15 01:51:12;;;;;;;1999.90;999.90;;;4.70;99.90;;;;;;5093132;28;20691;-42
2021/07/15 01:53:39;;;;;;;1999.90;999.90;;;4.80;99.90;;;;;;5093111;28;20202;-57
2021/07/15 01:56:10;;;;;;;1999.90;999.90;;;4.80;99.90;;;;;;5093111;28;20168;-42
2021/07/15 01:58:39;;;;;;;1999.90;999.90;;;4.70;99.90;;;;;;5092920;28;20228;-42
2021/07/15 02:01:09;;;;;;;1999.90;999.90;;;4.70;99.90;;;;;;5093052;28;20160;-52
2021/07/15 02:03:40;;;;;;;1999.90;999.90;;;4.60;99.90;;;;;;5092675;28;20232;-42
2021/07/15 02:06:09;;;;;;;1999.90;999.90;;;4.60;99.90;;;;;;5092977;28;20515;-42
2021/07/15 02:08:37;;;;;;;1999.90;999.90;;;4.70;99.90;;;;;;5092900;28;20417;-42
2021/07/15 02:11:04;;;;;;;1999.90;999.90;;;4.70;99.90;;;;;;5092888;28;20164;-58
2021/07/15 02:13:32;;;;;;;1999.90;999.90;;;4.70;99.90;;;;;;5092904;28;20172;-53
2021/07/15 02:16:01;;;;;;;1999.90;999.90;;;4.70;99.90;;;;;;5092809;28;20535;-42
2021/07/15 02:18:28;;;;;;;1999.90;999.90;;;4.60;99.90;;;;;;5092870;28;20167;-42
2021/07/15 02:20:57;;;;;;;1999.90;999.90;;;4.50;99.90;;;;;;5092816;28;20258;-42
2021/07/15 02:23:24;;;;;;;1999.90;999.90;;;4.50;99.90;;;;;;5092807;28;20195;-57
2021/07/15 02:25:56;;;;;;;1999.90;999.90;;;4.50;99.90;;;;;;5092948;28;20162;-59
2021/07/15 02:28:25;;;;;;;1999.90;999.90;;;4.50;99.90;;;;;;5092830;28;20633;-41
2021/07/15 02:31:02;;;;;;;1999.90;999.90;;;4.60;99.90;;;;;;5092923;28;20168;-58
2021/07/15 02:33:30;;;;;;;1999.90;999.90;;;4.50;99.90;;;;;;5092829;28;20596;-42
2021/07/15 02:36:01;;;;;;;1999.90;999.90;;;4.40;99.90;;;;;;5092690;28;20164;-42
2021/07/15 02:38:31;;;;;;;1999.90;999.90;;;4.40;99.90;;;;;;5092638;28;20629;-56
2021/07/15 02:40:58;;;;;;;1999.90;999.90;;;4.30;99.90;;;;;;5092699;28;20566;-42
2021/07/15 02:43:25;;;;;;;1999.90;999.90;;;4.30;99.90;;;;;;5092670;28;20298;-57
2021/07/15 02:45:52;;;;;;;1999.90;999.90;;;4.30;99.90;;;;;;5092743;28;20209;-42
2021/07/15 02:48:20;;;;;;;1999.90;999.90;;;4.30;99.90;;;;;;5092752;28;20169;-51
2021/07/15 02:50:47;;;;;;;1999.90;999.90;;;4.30;99.90;;;;;;5092634;28;20160;-43
2021/07/15 02:53:15;;;;;;;1999.90;999.90;;;4.20;99.90;;;;;;5092491;28;20179;-42
2021/07/15 02:55:54;;;;;;;1999.90;999.90;;;4.20;99.90;;;;;;5092585;28;20156;-56
2021/07/15 02:58:28;;;;;;;1999.90;999.90;;;4.20;99.90;;;;;;5092685;28;20166;-41
2021/07/15 03:01:00;;;;;;;1999.90;999.90;;;4.20;99.90;;;;;;5092893;28;20149;-48
2021/07/15 03:03:54;;;;;;;1999.90;999.90;;;4.10;99.90;;;;;;5092196;28;20599;-42
2021/07/15 03:06:37;;;;;;;1999.90;999.90;;;4.10;99.90;;;;;;5092605;28;20239;-58
2021/07/15 03:09:29;;;;;;;1999.90;999.90;;;4.10;99.90;;;;;;5092483;28;20183;-58
2021/07/15 03:12:00;;;;;;;1999.90;999.90;;;4.00;99.90;;;;;;5095939;28;20164;-42
2021/07/15 03:14:32;;;;;;;1999.90;999.90;;;4.00;99.90;;;;;;5096160;28;20164;-42
2021/07/15 03:17:01;;;;;;;1999.90;999.90;;;4.00;99.90;;;;;;5096113;28;20191;-42
2021/07/15 03:19:32;;;;;;;1999.90;999.90;;;4.00;99.90;;;;;;5095969;28;20176;-42
2021/07/15 03:22:03;;;;;;;1999.90;999.90;;;4.10;99.90;;;;;;5095909;28;20204;-42
2021/07/15 03:24:36;;;;;;;1999.90;999.90;;;4.00;99.90;;;;;;5095769;28;20234;-42
2021/07/15 03:27:05;;;;;;;1999.90;999.90;;;3.90;99.90;;;;;;5095798;28;20164;-42
2021/07/15 03:29:34;;;;;;;1999.90;999.90;;;3.90;99.90;;;;;;5095779;28;20176;-42
2021/07/15 03:32:03;;;;;;;1999.90;999.90;;;3.90;99.90;;;;;;5095751;28;20183;-59
2021/07/15 03:34:31;;;;;;;1999.90;999.90;;;3.90;99.90;;;;;;5095669;28;20698;-42
2021/07/15 03:36:59;;;;;;;1999.90;999.90;;;3.90;99.90;;;;;;5095593;28;20664;-48
2021/07/15 03:39:27;;;;;;;1999.90;999.90;;;3.90;99.90;;;;;;5095677;28;20164;-42
2021/07/15 03:41:55;;;;;;;1999.90;999.90;;;3.90;99.90;;;;;;5095701;28;20254;-42
2021/07/15 03:44:23;;;;;;;1999.90;999.90;;;4.00;99.90;;;;;;5095263;28;20218;-42
2021/07/15 03:46:52;;;;;;;1999.90;999.90;;;4.00;99.90;;;;;;5095471;28;20209;-41
2021/07/15 03:49:22;;;;;;;1999.90;999.90;;;3.90;99.90;;;;;;5095358;28;20702;-42
2021/07/15 03:51:51;;;;;;;1999.90;999.90;;;3.90;99.90;;;;;;5095344;28;20163;-42
2021/07/15 03:54:23;;;;;;;1999.90;999.90;;;3.90;99.90;;;;;;5095256;28;20634;-42
2021/07/15 03:56:51;;;;;;;1999.90;999.90;;;3.90;99.90;;;;;;5095464;28;20179;-43
2021/07/15 03:59:20;;;;;;;1999.90;999.90;;;4.00;99.90;;;;;;5095160;28;20225;-42
2021/07/15 04:02:02;;;;;;;1999.90;999.90;;;3.90;99.90;;;;;;5095048;28;20350;-42
2021/07/15 04:04:30;;;;;;;1999.90;999.90;;;3.90;99.90;;;;;;5095134;28;20192;-42
2021/07/15 04:07:02;;;;;;;1999.90;999.90;;;3.80;99.90;;;;;;5095171;28;20165;-41
2021/07/15 04:09:31;;;;;;;1999.90;999.90;;;3.80;99.90;;;;;;5095188;28;20164;-53
2021/07/15 04:11:59;;;;;;;1999.90;999.90;;;3.80;99.90;;;;;;5094984;28;20243;-55
2021/07/15 04:14:51;;;;;;;1999.90;999.90;;;3.90;99.90;;;;;;5094810;28;20160;-42
2021/07/15 04:17:20;;;;;;;1999.90;999.90;;;3.90;99.90;;;;;;5094436;28;20184;-42
2021/07/15 04:19:47;;;;;;;1999.90;999.90;;;3.80;99.90;;;;;;5094740;28;20618;-59
2021/07/15 04:22:14;;;;;;;1999.90;999.90;;;3.80;99.90;;;;;;5094688;28;20164;-42
2021/07/15 04:24:42;;;;;;;1999.90;999.90;;;3.90;99.90;;;;;;5094658;28;20709;-44
2021/07/15 04:27:10;;;;;;;1999.90;999.90;;;3.80;99.90;;;;;;5094611;28;20160;-42
2021/07/15 04:29:40;;;;;;;1999.90;999.90;;;3.80;99.90;;;;;;5094481;28;20180;-42
2021/07/15 04:32:15;;;;;;;1999.90;999.90;;;3.70;99.90;;;;;;5094430;28;20252;-42
2021/07/15 04:34:44;;;;;;;1999.90;999.90;;;3.70;99.90;;;;;;5094605;28;20209;-56
2021/07/15 04:37:11;;;;;;;1999.90;999.90;;;3.90;99.90;;;;;;5094470;28;20172;-44
2021/07/15 04:39:38;;;;;;;1999.90;999.90;;;3.80;99.90;;;;;;5094445;28;20195;-42
2021/07/15 04:42:06;;;;;;;1999.90;999.90;;;3.80;99.90;;;;;;5094416;28;20164;-45
2021/07/15 04:44:35;;;;;;;1999.90;999.90;;;3.80;99.90;;;;;;5094280;28;20195;-41
2021/07/15 04:47:05;;;;;;;1999.90;999.90;;;3.80;99.90;;;;;;5094398;28;20652;-57
2021/07/15 04:49:33;;;;;;;1999.90;999.90;;;3.80;99.90;;;;;;5094186;28;20199;-53
2021/07/15 04:52:03;;;;;;;1999.90;999.90;;;3.80;99.90;;;;;;5094204;28;20538;-58
2021/07/15 04:54:31;;;;;;;1999.90;999.90;;;3.70;99.90;;;;;;5094155;28;20649;-42
2021/07/15 04:56:59;;;;;;;1999.90;999.90;;;3.70;99.90;;;;;;5094015;28;20176;-42
2021/07/15 04:59:26;;;;;;;1999.90;999.90;;;3.70;99.90;;;;;;5094025;28;20172;-59
2021/07/15 05:01:53;;;;;;;1999.90;999.90;;;3.70;99.90;;;;;;5093793;28;20215;-44
2021/07/15 05:04:20;;;;;;;1999.90;999.90;;;3.70;99.90;;;;;;5093922;28;20318;-42
2021/07/15 05:06:47;;;;;;;1999.90;999.90;;;3.70;99.90;;;;;;5093773;28;20182;-41
2021/07/15 05:09:15;;;;;;;1999.90;999.90;;;3.70;99.90;;;;;;5093863;28;20176;-59
2021/07/15 05:11:42;;;;;;;1999.90;999.90;;;3.60;99.90;;;;;;5093737;28;20199;-41
2021/07/15 05:14:09;;;;;;;1999.90;999.90;;;3.60;99.90;;;;;;5093714;28;20603;-42
2021/07/15 05:16:36;;;;;;;1999.90;999.90;;;3.60;99.90;;;;;;5093847;28;20329;-42
2021/07/15 05:19:03;;;;;;;1999.90;999.90;;;3.70;99.90;;;;;;5093745;28;20207;-46
2021/07/15 05:21:30;;;;;;;1999.90;999.90;;;3.60;99.90;;;;;;5093577;28;20191;-58
2021/07/15 05:23:57;;;;;;;1999.90;999.90;;;3.70;99.90;;;;;;5093431;28;20871;-44
2021/07/15 05:26:24;;;;;;;1999.90;999.90;;;3.70;99.90;;;;;;5093554;28;20168;-42
2021/07/15 05:28:51;;;;;;;1999.90;999.90;;;3.80;99.90;;;;;;5093454;28;20176;-41
2021/07/15 05:31:21;;;;;;;1999.90;999.90;;;3.70;99.90;;;;;;5093214;28;20170;-53
2021/07/15 05:33:49;;;;;;;1999.90;999.90;;;3.60;99.90;;;;;;5092882;28;20163;-42
2021/07/15 05:36:16;;;;;;;1999.90;999.90;;;3.70;99.90;;;;;;5093247;28;20180;-42
2021/07/15 05:38:46;;;;;;;1999.90;999.90;;;3.60;99.90;;;;;;5093090;28;20164;-42
2021/07/15 05:41:13;;;;;;;1999.90;999.90;;;3.60;99.90;;;;;;5092974;28;20264;-58
2021/07/15 05:43:40;;;;;;;1999.90;999.90;;;3.60;99.90;;;;;;5092968;28;20199;-43
2021/07/15 05:46:06;;;;;;;1999.90;999.90;;;3.60;99.90;;;;;;5093174;28;20630;-41
2021/07/15 05:48:33;;;;;;;1999.90;999.90;;;3.60;99.90;;;;;;5092963;28;20172;-57
2021/07/15 05:51:00;;;;;;;1999.90;999.90;;;3.60;99.90;;;;;;5092937;28;20169;-59
2021/07/15 05:53:27;;;;;;;1999.90;999.90;;;3.60;99.90;;;;;;5092908;28;20645;-41
2021/07/15 05:55:54;;;;;;;1999.90;999.90;;;3.50;99.90;;;;;;5092926;28;20634;-41
2021/07/15 05:58:21;;;;;;;1999.90;999.90;;;3.50;99.90;;;;;;5091799;28;20241;-58
2021/07/15 06:00:48;;;;;;;1999.90;999.90;;;3.50;99.90;;;;;;5092522;28;20164;-41
2021/07/15 06:03:15;;;;;;;1999.90;999.90;;;3.60;99.90;;;;;;5091711;28;20357;-44
2021/07/15 06:05:42;;;;;;;1999.90;999.90;;;3.50;99.90;;;;;;5092603;28;20160;-41
2021/07/15 06:08:09;;;;;;;1999.90;999.90;;;3.90;99.90;;;;;;5092728;28;20187;-39
2021/07/15 06:10:36;;;;;;;1999.90;999.90;;;4.20;99.90;;;;;;5092518;28;20164;-40
2021/07/15 06:13:03;;;;;;;1999.90;999.90;;;4.60;99.90;;;;;;5092603;28;20659;-40
2021/07/15 06:15:29;;;;;;;1999.90;999.90;;;4.90;99.90;;;;;;5092790;28;20168;-50
2021/07/15 06:17:56;;;;;;;1999.90;999.90;;;5.50;99.90;;;;;;5092693;28;20642;-48
2021/07/15 06:20:24;;;;;;;1999.90;999.90;;;5.80;99.90;;;;;;5092632;28;20165;-48
2021/07/15 06:22:51;;;;;;;1999.90;999.90;;;5.80;99.90;;;;;;5092676;28;20191;-40
2021/07/15 06:25:18;;;;;;;1999.90;999.90;;;5.80;99.90;;;;;;5092732;28;20168;-46
2021/07/15 06:27:45;;;;;;;1999.90;999.90;;;5.50;99.90;;;;;;5092692;28;20629;-40
2021/07/15 06:30:14;;;;;;;1999.90;999.90;;;5.40;99.90;;;;;;5092618;28;20163;-44
2021/07/15 06:32:41;;;;;;;1999.90;999.90;;;5.10;99.90;;;;;;5092584;28;20195;-41
2021/07/15 06:35:08;;;;;;;1999.90;999.90;;;5.10;99.90;;;;;;5092131;28;20421;-40
2021/07/15 06:37:41;;;;;;;1999.90;999.90;;;5.10;99.90;;;;;;5092942;28;20165;-39
2021/07/15 06:40:10;;;;;;;1999.90;999.90;;;5.10;99.90;;;;;;5092458;28;20256;-45
2021/07/15 06:42:37;;;;;;;1999.90;999.90;;;5.10;99.90;;;;;;5092121;28;20188;-42
2021/07/15 06:45:08;;;;;;;1999.90;999.90;;;5.40;99.90;;;;;;5092935;28;20251;-41
2021/07/15 06:47:35;;;;;;;1999.90;999.90;;;5.50;99.90;;;;;;5096256;28;20220;-43
2021/07/15 06:50:04;;;;;;;1999.90;999.90;;;5.70;99.90;;;;;;5096237;28;20192;-44
2021/07/15 06:52:31;;;;;;;1999.90;999.90;;;6.20;99.90;;;;;;5096139;28;20171;-43
2021/07/15 06:55:01;;;;;;;1999.90;999.90;;;6.00;99.90;;;;;;5096074;28;20298;-42
2021/07/15 06:57:33;;;;;;;1999.90;999.90;;;5.90;99.90;;;;;;5095907;28;20188;-42
2021/07/15 07:00:00;;;;;;;1999.90;999.90;;;5.80;99.90;;;;;;5094955;28;20404;-43
2021/07/15 07:02:27;;;;;;;1999.90;999.90;;;5.80;99.90;;;;;;5094756;28;20892;-45
2021/07/15 07:27:48;;;;;;;1999.90;999.90;;;6.00;99.90;;;;;;5130312;27;20534;-44
2021/07/15 07:30:17;;;;;;;1999.90;999.90;;;7.00;99.90;;;;;;5130082;27;20181;-51
2021/07/15 07:32:56;;;;;;;1999.90;999.90;;;7.20;99.90;;;;;;5128407;27;20180;-43
2021/07/15 07:35:22;;;;;;;1999.90;999.90;;;7.10;99.90;;;;;;5129769;27;20150;-43
2021/07/15 07:37:49;;;;;;;1999.90;999.90;;;8.40;99.90;;;;;;5129670;27;20227;-48
2021/07/15 07:40:17;;;;;;;1999.90;999.90;;;8.30;99.90;;;;;;5129682;27;20215;-50
2021/07/15 07:42:48;;;;;;;1999.90;999.90;;;8.20;99.90;;;;;;5129479;27;20169;-52
2021/07/15 07:45:16;;;;;;;1999.90;999.90;;;8.10;99.90;;;;;;5128400;27;20788;-44
2021/07/15 07:47:43;;;;;;;1999.90;999.90;;;8.10;99.90;;;;;;5129192;27;20245;-48
2021/07/15 07:50:14;;;;;;;1999.90;999.90;;;8.00;99.90;;;;;;5129699;27;20184;-43
2021/07/15 07:52:41;;;;;;;1999.90;999.90;;;8.00;99.90;;;;;;5129493;27;20193;-43
2021/07/15 07:55:09;;;;;;;1999.90;999.90;;;8.10;99.90;;;;;;5129503;27;20257;-46
2021/07/15 07:57:36;;;;;;;1999.90;999.90;;;8.10;99.90;;;;;;5128154;27;20410;-52
2021/07/15 08:00:07;;;;;;;1999.90;999.90;;;8.10;99.90;;;;;;5129395;27;20249;-52
2021/07/15 08:02:34;;;;;;;1999.90;999.90;;;8.10;99.90;;;;;;5129347;27;20151;-59
2021/07/15 08:05:05;;;;;;;1999.90;999.90;;;9.10;99.90;;;;;;5128772;27;20201;-54
2021/07/15 08:07:34;;;;;;;1999.90;999.90;;;9.30;99.90;;;;;;5128038;27;20158;-55
2021/07/15 08:10:03;;;;;;;1999.90;999.90;;;9.30;99.90;;;;;;5128490;27;20257;-53
2021/07/15 08:12:29;;;;;;;1999.90;999.90;;;9.10;99.90;;;;;;5128870;27;20163;-45
2021/07/15 08:14:56;;;;;;;1999.90;999.90;;;9.10;99.90;;;;;;5128720;27;20165;-47
2021/07/15 08:17:23;;;;;;;1999.90;999.90;;;9.30;99.90;;;;;;5118837;27;20198;-51
2021/07/15 08:19:50;;;;;;;1999.90;999.90;;;9.30;99.90;;;;;;5115326;28;20156;-56
2021/07/15 08:22:16;;;;;;;1999.90;999.90;;;9.30;99.90;;;;;;5115630;28;20177;-57
2021/07/15 08:24:45;;;;;;;1999.90;999.90;;;10.40;99.90;;;;;;5115352;28;20546;-48
2021/07/15 08:27:11;;;;;;;1999.90;999.90;;;10.50;99.90;;;;;;5115121;28;20222;-54
2021/07/15 08:29:38;;;;;;;1999.90;999.90;;;10.70;99.90;;;;;;5115043;28;20609;-51
2021/07/15 08:32:06;;;;;;;1999.90;999.90;;;10.70;99.90;;;;;;5115333;28;20566;-54
2021/07/15 08:34:33;;;;;;;1999.90;999.90;;;10.60;99.90;;;;;;5114926;28;20194;-46
2021/07/15 08:37:00;;;;;;;1999.90;999.90;;;10.60;99.90;;;;;;5114845;28;20167;-54
2021/07/15 08:39:27;;;;;;;1999.90;999.90;;;10.70;99.90;;;;;;5114638;28;20593;-47
2021/07/15 08:41:54;;;;;;;1999.90;999.90;;;10.80;99.90;;;;;;5114944;28;20217;-46
2021/07/15 08:44:22;;;;;;;1999.90;999.90;;;11.70;99.90;;;;;;5114584;28;20163;-44
2021/07/15 08:46:49;;;;;;;1999.90;999.90;;;11.60;99.90;;;;;;5114535;28;20178;-46
2021/07/15 08:49:21;;;;;;;1999.90;999.90;;;11.50;99.90;;;;;;5114722;28;20254;-46
2021/07/15 08:51:48;;;;;;;1999.90;999.90;;;11.40;99.90;;;;;;5114771;28;20216;-55
2021/07/15 08:54:17;;;;;;;1999.90;999.90;;;11.40;99.90;;;;;;5114811;27;20251;-46
2021/07/15 08:56:47;;;;;;;1999.90;999.90;;;11.40;99.90;;;;;;5114765;28;20171;-58
2021/07/15 08:59:16;;;;;;;1999.90;999.90;;;11.50;99.90;;;;;;5114348;28;20633;-50
2021/07/15 09:01:48;;;;;;;1999.90;999.90;;;11.50;99.90;;;;;;5113209;28;20167;-48
2021/07/15 09:04:15;;;;;;;1999.90;999.90;;;11.60;99.90;;;;;;5114631;28;20620;-48
2021/07/15 09:06:43;;;;;;;1999.90;999.90;;;11.70;99.90;;;;;;5114259;28;20182;-52
2021/07/15 09:09:11;;;;;;;1999.90;999.90;;;11.70;99.90;;;;;;5113981;28;20171;-54
2021/07/15 09:11:39;;;;;;;1999.90;999.90;;;11.80;99.90;;;;;;5114438;28;20178;-45
2021/07/15 09:14:22;;;;;;;1999.90;999.90;;;12.00;99.90;;;;;;5114140;28;20166;-48
2021/07/15 09:16:52;;;;;;;1999.90;999.90;;;12.10;99.90;;;;;;5113926;28;20163;-45
2021/07/15 09:19:20;;;;;;;1999.90;999.90;;;12.40;99.90;;;;;;5114228;28;20628;-43
2021/07/15 09:21:47;;;;;;;1999.90;999.90;;;12.50;99.90;;;;;;5114554;28;20171;-45
2021/07/15 09:24:38;;;;;;;1999.90;999.90;;;12.60;99.90;;;;;;5113620;27;20175;-49
2021/07/15 09:27:26;;;;;;;1999.90;999.90;;;12.70;99.90;;;;;;5113407;28;20238;-44
2021/07/15 09:30:14;;;;;;;1999.90;999.90;;;12.70;99.90;;;;;;5113086;28;20186;-44
2021/07/15 09:32:58;;;;;;;1999.90;999.90;;;12.80;99.90;;;;;;5114496;28;20231;-48
2021/07/15 09:35:29;;;;;;;1999.90;999.90;;;13.00;99.90;;;;;;5113535;28;20193;-49
2021/07/15 09:38:07;;;;;;;1999.90;999.90;;;13.10;99.90;;;;;;5114023;28;20216;-52
2021/07/15 09:41:00;;;;;;;1999.90;999.90;;;13.30;99.90;;;;;;5113864;28;20163;-48
2021/07/15 09:43:33;;;;;;;1999.90;999.90;;;13.50;99.90;;;;;;5113756;28;20179;-46
2021/07/15 09:46:16;;;;;;;1999.90;999.90;;;13.70;99.90;;;;;;5113778;28;20551;-47
2021/07/15 09:48:51;;;;;;;1999.90;999.90;;;13.80;99.90;;;;;;5113442;28;20167;-46
2021/07/15 09:51:19;;;;;;;1999.90;999.90;;;13.90;99.90;;;;;;5113809;28;20186;-50
2021/07/15 09:53:47;;;;;;;1999.90;999.90;;;14.10;99.90;;;;;;5113466;28;20166;-53
2021/07/15 09:56:16;;;;;;;1999.90;999.90;;;14.30;99.90;;;;;;5113262;28;20198;-46
2021/07/15 09:58:46;;;;;;;1999.90;999.90;;;14.40;99.90;;;;;;5112403;28;20228;-47
2021/07/15 10:01:20;;;;;;;1999.90;999.90;;;14.40;99.90;;;;;;5112074;28;20163;-51
2021/07/15 10:03:51;;;;;;;1999.90;999.90;;;14.60;99.90;;;;;;5113327;28;20645;-47
2021/07/15 10:06:19;;;;;;;1999.90;999.90;;;14.80;99.90;;;;;;5113323;28;20223;-54
2021/07/15 10:08:52;;;;;;;1999.90;999.90;;;14.80;99.90;;;;;;5113053;28;20167;-46
2021/07/15 10:11:18;;;;;;;1999.90;999.90;;;14.90;99.90;;;;;;5113390;28;20184;-47
2021/07/15 10:13:48;;;;;;;1999.90;999.90;;;15.00;99.90;;;;;;5112587;28;20254;-51
2021/07/15 10:16:15;;;;;;;1999.90;999.90;;;15.10;99.90;;;;;;5113128;28;20167;-54
2021/07/15 10:18:50;;;;;;;1999.90;999.90;;;15.20;99.90;;;;;;5112834;28;20155;-52
2021/07/15 10:21:32;;;;;;;1999.90;999.90;;;15.30;99.90;;;;;;5112813;28;20177;-53
2021/07/15 10:24:13;;;;;;;1999.90;999.90;;;15.40;98.70;;;;;;5113178;28;20151;-56
2021/07/15 10:26:46;;;;;;;1999.90;999.90;;;15.50;96.80;;;;;;5112909;28;20233;-57
2021/07/15 10:29:15;;;;;;;1999.90;999.90;;;15.70;97.50;;;;;;5113041;28;20147;-60
2021/07/15 10:31:43;;;;;;;1999.90;999.90;;;15.90;98.70;;;;;;5113019;28;20249;-47
2021/07/15 10:34:11;;;;;;;1999.90;999.90;;;16.00;94.60;;;;;;5112952;28;20178;-50
2021/07/15 10:36:39;;;;;;;1999.90;999.90;;;16.10;92.20;;;;;;5113165;28;20628;-59
2021/07/15 10:39:10;;;;;;;1999.90;999.90;;;16.30;89.60;;;;;;5112812;28;20163;-50
2021/07/15 10:41:38;;;;;;;1999.90;999.90;;;16.40;91.20;;;;;;5112903;28;20716;-48
2021/07/15 10:44:10;;;;;;;1999.90;999.90;;;16.50;92.80;;;;;;5112711;28;20159;-49
2021/07/15 10:46:37;;;;;;;1999.90;999.90;;;16.70;90.60;;;;;;5112436;28;20680;-54
2021/07/15 10:49:08;;;;;;;1999.90;999.90;;;16.80;93.30;;;;;;5111438;28;20175;-58
2021/07/15 10:51:37;;;;;;;1999.90;999.90;;;16.80;91.00;;;;;;5112745;28;20159;-57
2021/07/15 10:54:05;;;;;;;1999.90;999.90;;;17.00;87.60;;;;;;5112644;28;20166;-54
2021/07/15 10:56:32;;;;;;;1999.90;999.90;;;17.10;82.70;;;;;;5113024;28;20170;-58
2021/07/15 10:59:00;;;;;;;1999.90;999.90;;;17.20;77.00;;;;;;5112684;28;20163;-55
2021/07/15 11:01:35;;;;;;;1999.90;999.90;;;17.20;69.00;;;;;;5112106;28;20238;-52
2021/07/15 11:04:13;;;;;;;1999.90;999.90;;;17.50;83.90;;;;;;5112415;28;20221;-56
2021/07/15 11:06:42;;;;;;;1999.90;999.90;;;18.10;64.40;;;;;;5111934;28;20429;-51
2021/07/15 11:09:31;;;;;;;1999.90;999.90;;;18.10;61.00;;;;;;5111910;28;20543;-56
2021/07/15 11:12:02;;;;;;;1999.90;999.90;;;18.00;63.50;;;;;;5112420;28;20151;-53
2021/07/15 11:14:46;;;;;;;1999.90;999.90;;;18.00;63.00;;;;;;5112210;28;20175;-57
2021/07/15 11:17:22;;;;;;;1999.90;999.90;;;17.90;62.70;;;;;;5112146;28;20159;-54
2021/07/15 11:19:49;;;;;;;1999.90;999.90;;;17.90;59.20;;;;;;5112614;28;20227;-57
2021/07/15 11:22:44;;;;;;;1999.90;999.90;;;17.80;54.40;;;;;;5112600;28;20167;-51
2021/07/15 11:25:18;;;;;;;1999.90;999.90;;;17.80;54.80;;;;;;5112376;28;20195;-49
2021/07/15 11:27:54;;;;;;;1999.90;999.90;;;17.80;50.10;;;;;;5112518;28;20206;-52
2021/07/15 11:30:29;;;;;;;1999.90;999.90;;;17.80;47.60;;;;;;5112564;28;20151;-54
2021/07/15 11:33:16;;;;;;;1999.90;999.90;;;17.90;53.30;;;;;;5112318;28;20636;-52
2021/07/15 11:35:53;;;;;;;1999.90;999.90;;;17.90;50.80;;;;;;5112195;28;20167;-55
2021/07/15 11:38:25;;;;;;;1999.90;999.90;;;17.80;48.60;;;;;;5112241;28;20621;-52
2021/07/15 11:40:52;;;;;;;1999.90;999.90;;;17.80;49.80;;;;;;5112078;28;20206;-57
2021/07/15 11:43:27;;;;;;;1999.90;999.90;;;17.80;50.50;;;;;;5112112;28;20163;-57
2021/07/15 11:46:16;;;;;;;1999.90;999.90;;;17.80;49.40;;;;;;5111974;28;20207;-47
2021/07/15 11:48:46;;;;;;;1999.90;999.90;;;17.80;50.10;;;;;;5111839;28;20167;-48
2021/07/15 11:51:32;;;;;;;1999.90;999.90;;;17.90;49.60;;;;;;5111986;28;20534;-54
2021/07/15 11:54:46;;;;;;;1999.90;999.90;;;18.00;46.90;;;;;;5114482;28;20592;-57
2021/07/15 11:57:12;;;;;;;1999.90;999.90;;;17.90;51.50;;;;;;5095160;28;20188;-48
2021/07/15 11:59:50;;;;;;;1999.90;999.90;;;18.00;48.20;;;;;;5095722;28;20202;-51
2021/07/15 12:02:24;;;;;;;1999.90;999.90;;;18.00;49.30;;;;;;5112988;28;20250;-50
2021/07/15 12:05:20;;;;;;;1999.90;999.90;;;18.00;45.80;;;;;;5114306;28;20199;-49
2021/07/15 12:07:48;;;;;;;1999.90;999.90;;;18.10;47.90;;;;;;5113900;28;20483;-54
2021/07/15 12:10:26;;;;;;;1999.90;999.90;;;18.10;49.10;;;;;;5115505;28;20159;-49
2021/07/15 12:12:56;;;;;;;1999.90;999.90;;;18.10;49.70;;;;;;5115301;28;20163;-48
2021/07/15 12:15:26;;;;;;;1999.90;999.90;;;18.20;50.70;;;;;;5115717;28;20544;-53
2021/07/15 12:18:13;;;;;;;1999.90;999.90;;;18.10;49.90;;;;;;5114309;28;20392;-53
2021/07/15 12:20:43;;;;;;;1999.90;999.90;;;18.10;47.50;;;;;;5115677;28;20162;-50
2021/07/15 12:23:19;;;;;;;1999.90;999.90;;;18.10;47.70;;;;;;5115821;28;20163;-48
2021/07/15 12:25:48;;;;;;;1999.90;999.90;;;18.20;47.80;;;;;;5115215;27;20323;-63
2021/07/15 12:28:17;;;;;;;1999.90;999.90;;;18.30;49.60;;;;;;5115376;28;20250;-59
2021/07/15 12:30:53;;;;;;;1999.90;999.90;;;18.80;49.70;;;;;;5114260;28;20526;-50
2021/07/15 12:33:23;;;;;;;1999.90;999.90;;;19.30;47.50;;;;;;5115272;28;20240;-65
2021/07/15 12:35:52;;;;;;;1999.90;999.90;;;19.70;46.60;;;;;;5115368;28;20167;-47
2021/07/15 12:38:30;;;;;;;1999.90;999.90;;;19.70;44.80;;;;;;5115353;27;20167;-58
2021/07/15 12:41:23;;;;;;;1999.90;999.90;;;19.80;45.20;;;;;;5115379;28;20163;-47
2021/07/15 12:43:58;;;;;;;1999.90;999.90;;;19.70;43.70;;;;;;5115125;28;20167;-50
2021/07/15 12:46:28;;;;;;;1999.90;999.90;;;19.30;40.30;;;;;;5115274;28;20567;-46
2021/07/15 12:48:58;;;;;;;1999.90;999.90;;;18.90;41.60;;;;;;5115359;28;20183;-46